sensor_id;sensor_type;location;lat;lon;timestamp;pressure;altitude;pressure_sealevel;temperature;humidity
64827;BME280;51265;53.972;12.286;2024-01-15T00:00:27;98231.41;;;-0.44;100.00
64827;BME280;51265;53.972;12.286;2024-01-15T00:02:53;98217.88;;;-0.44;100.00
64827;BME280;51265;53.972;12.286;2024-01-15T00:05:19;98215.69;;;-0.42;100.00
64827;BME280;51265;53.972;12.286;2024-01-15T00:07:45;98217.03;;;-0.40;100.00
64827;BME280;51265;53.972;12.286;2024-01-15T00:10:11;98215.06;;;-0.34;100.00
64827;BME280;51265;53.972;12.286;2024-01-15T00:12:37;98208.00;;;-0.30;100.00
64827;BME280;51265;53.972;12.286;2024-01-15T00:15:04;98207.72;;;-0.29;100.00
64827;BME280;51265;53.972;12.286;2024-01-15T00:17:32;98185.78;;;-0.27;100.00
64827;BME280;51265;53.972;12.286;2024-01-15T00:19:58;98167.38;;;-0.25;100.00
64827;BME280;51265;53.972;12.286;2024-01-15T00:22:25;98171.00;;;-0.35;100.00
64827;BME280;51265;53.972;12.286;2024-01-15T00:24:52;98157.19;;;-0.33;100.00
64827;BME280;51265;53.972;12.286;2024-01-15T00:27:18;98155.88;;;-0.36;100.00
64827;BME280;51265;53.972;12.286;2024-01-15T00:29:44;98153.16;;;-0.36;100.00
64827;BME280;51265;53.972;12.286;2024-01-15T00:32:11;98144.25;;;-0.36;100.00
64827;BME280;51265;53.972;12.286;2024-01-15T00:38:46;98117.00;;;-0.21;100.00
64827;BME280;51265;53.972;12.286;2024-01-15T00:41:13;98117.53;;;-0.19;100.00
64827;BME280;51265;53.972;12.286;2024-01-15T00:43:40;98111.25;;;-0.14;100.00
64827;BME280;51265;53.972;12.286;2024-01-15T00:46:06;98112.28;;;-0.10;100.00
64827;BME280;51265;53.972;12.286;2024-01-15T00:48:32;98092.53;;;-0.11;100.00
64827;BME280;51265;53.972;12.286;2024-01-15T00:50:58;98098.44;;;-0.09;100.00
64827;BME280;51265;53.972;12.286;2024-01-15T00:53:25;98086.47;;;-0.03;100.00
64827;BME280;51265;53.972;12.286;2024-01-15T00:55:51;98084.34;;;-0.06;100.00
64827;BME280;51265;53.972;12.286;2024-01-15T00:58:18;98070.69;;;0.05;100.00
64827;BME280;51265;53.972;12.286;2024-01-15T01:00:44;98063.16;;;0.02;100.00
64827;BME280;51265;53.972;12.286;2024-01-15T01:03:11;98070.69;;;0.05;100.00
64827;BME280;51265;53.972;12.286;2024-01-15T01:05:37;98051.44;;;0.06;100.00
64827;BME280;51265;53.972;12.286;2024-01-15T01:08:04;98050.41;;;0.02;100.00
64827;BME280;51265;53.972;12.286;2024-01-15T01:10:30;98040.69;;;0.01;100.00
64827;BME280;51265;53.972;12.286;2024-01-15T01:12:57;98040.19;;;0.18;100.00
64827;BME280;51265;53.972;12.286;2024-01-15T01:15:23;98027.75;;;0.17;100.00
64827;BME280;51265;53.972;12.286;2024-01-15T01:17:50;98035.00;;;0.21;100.00
64827;BME280;51265;53.972;12.286;2024-01-15T01:20:16;98024.44;;;0.20;100.00
64827;BME280;51265;53.972;12.286;2024-01-15T01:22:42;98026.66;;;0.18;100.00
64827;BME280;51265;53.972;12.286;2024-01-15T01:25:08;97993.38;;;0.17;100.00
64827;BME280;51265;53.972;12.286;2024-01-15T01:27:35;97996.78;;;0.23;100.00
64827;BME280;51265;53.972;12.286;2024-01-15T01:30:01;97991.38;;;0.23;100.00
64827;BME280;51265;53.972;12.286;2024-01-15T01:32:28;97979.97;;;0.26;100.00
64827;BME280;51265;53.972;12.286;2024-01-15T01:34:54;97974.38;;;0.36;100.00
64827;BME280;51265;53.972;12.286;2024-01-15T01:37:20;97973.78;;;0.39;100.00
64827;BME280;51265;53.972;12.286;2024-01-15T01:39:47;97975.56;;;0.30;100.00
64827;BME280;51265;53.972;12.286;2024-01-15T01:42:13;97976.31;;;0.17;100.00
64827;BME280;51265;53.972;12.286;2024-01-15T01:44:39;97961.03;;;0.07;100.00
64827;BME280;51265;53.972;12.286;2024-01-15T01:47:05;97951.75;;;-0.06;100.00
64827;BME280;51265;53.972;12.286;2024-01-15T01:49:32;97942.84;;;-0.06;100.00
64827;BME280;51265;53.972;12.286;2024-01-15T01:52:00;97943.38;;;-0.04;100.00
64827;BME280;51265;53.972;12.286;2024-01-15T01:54:29;97938.59;;;0.07;100.00
64827;BME280;51265;53.972;12.286;2024-01-15T01:56:56;97937.34;;;-0.01;100.00
64827;BME280;51265;53.972;12.286;2024-01-15T01:59:25;97956.00;;;0.01;100.00
64827;BME280;51265;53.972;12.286;2024-01-15T02:01:54;97942.97;;;0.03;100.00
64827;BME280;51265;53.972;12.286;2024-01-15T02:04:23;97930.16;;;0.08;100.00
64827;BME280;51265;53.972;12.286;2024-01-15T02:06:50;97928.56;;;0.07;100.00
64827;BME280;51265;53.972;12.286;2024-01-15T02:09:18;97919.88;;;-0.09;100.00
64827;BME280;51265;53.972;12.286;2024-01-15T02:11:47;97921.28;;;-0.11;100.00
64827;BME280;51265;53.972;12.286;2024-01-15T02:14:14;97913.38;;;-0.08;100.00
64827;BME280;51265;53.972;12.286;2024-01-15T02:16:41;97907.44;;;-0.10;100.00
64827;BME280;51265;53.972;12.286;2024-01-15T02:19:07;97919.72;;;0.02;100.00
64827;BME280;51265;53.972;12.286;2024-01-15T02:21:33;97915.34;;;0.06;100.00
64827;BME280;51265;53.972;12.286;2024-01-15T02:23:59;97912.97;;;0.18;100.00
64827;BME280;51265;53.972;12.286;2024-01-15T02:26:26;97914.34;;;0.15;100.00
64827;BME280;51265;53.972;12.286;2024-01-15T02:28:52;97905.94;;;0.17;100.00
64827;BME280;51265;53.972;12.286;2024-01-15T02:31:18;97923.09;;;0.26;100.00
64827;BME280;51265;53.972;12.286;2024-01-15T02:33:44;97910.75;;;0.20;100.00
64827;BME280;51265;53.972;12.286;2024-01-15T02:36:12;97923.38;;;0.24;100.00
64827;BME280;51265;53.972;12.286;2024-01-15T02:38:38;97918.78;;;0.25;100.00
64827;BME280;51265;53.972;12.286;2024-01-15T02:41:04;97907.56;;;0.32;100.00
64827;BME280;51265;53.972;12.286;2024-01-15T02:43:30;97910.59;;;0.30;100.00
64827;BME280;51265;53.972;12.286;2024-01-15T02:45:56;97917.41;;;0.41;100.00
64827;BME280;51265;53.972;12.286;2024-01-15T02:48:22;97907.56;;;0.32;100.00
64827;BME280;51265;53.972;12.286;2024-01-15T02:50:49;97898.97;;;0.30;100.00
64827;BME280;51265;53.972;12.286;2024-01-15T02:53:15;97900.25;;;0.32;100.00
64827;BME280;51265;53.972;12.286;2024-01-15T02:55:41;97901.34;;;0.31;100.00
64827;BME280;51265;53.972;12.286;2024-01-15T02:58:07;97892.72;;;0.29;100.00
64827;BME280;51265;53.972;12.286;2024-01-15T03:00:33;97909.97;;;0.33;100.00
64827;BME280;51265;53.972;12.286;2024-01-15T03:02:59;97909.28;;;0.41;100.00
64827;BME280;51265;53.972;12.286;2024-01-15T03:05:26;97900.47;;;0.36;100.00
64827;BME280;51265;53.972;12.286;2024-01-15T03:07:52;97894.13;;;0.27;100.00
64827;BME280;51265;53.972;12.286;2024-01-15T03:10:18;97907.34;;;0.28;100.00
64827;BME280;51265;53.972;12.286;2024-01-15T03:12:44;97895.84;;;0.36;100.00
64827;BME280;51265;53.972;12.286;2024-01-15T03:15:10;97907.78;;;0.35;100.00
64827;BME280;51265;53.972;12.286;2024-01-15T03:17:36;97897.53;;;0.32;100.00
64827;BME280;51265;53.972;12.286;2024-01-15T03:20:03;97888.25;;;0.38;100.00
64827;BME280;51265;53.972;12.286;2024-01-15T03:22:29;97886.53;;;0.42;100.00
64827;BME280;51265;53.972;12.286;2024-01-15T03:24:55;97886.53;;;0.42;100.00
64827;BME280;51265;53.972;12.286;2024-01-15T03:27:21;97899.19;;;0.47;100.00
64827;BME280;51265;53.972;12.286;2024-01-15T03:29:47;97905.41;;;0.47;100.00
64827;BME280;51265;53.972;12.286;2024-01-15T03:32:13;97912.00;;;0.41;100.00
64827;BME280;51265;53.972;12.286;2024-01-15T03:34:41;97875.72;;;0.42;100.00
64827;BME280;51265;53.972;12.286;2024-01-15T03:37:07;97888.94;;;0.44;100.00
64827;BME280;51265;53.972;12.286;2024-01-15T03:39:33;97876.72;;;0.46;100.00
64827;BME280;51265;53.972;12.286;2024-01-15T03:42:00;97877.78;;;0.45;100.00
64827;BME280;51265;53.972;12.286;2024-01-15T03:44:26;97881.31;;;0.46;100.00
64827;BME280;51265;53.972;12.286;2024-01-15T03:46:52;97880.72;;;0.49;100.00
64827;BME280;51265;53.972;12.286;2024-01-15T03:49:18;97884.84;;;0.46;100.00
64827;BME280;51265;53.972;12.286;2024-01-15T03:51:45;97886.53;;;0.42;100.00
64827;BME280;51265;53.972;12.286;2024-01-15T03:54:11;97887.34;;;0.43;100.00
64827;BME280;51265;53.972;12.286;2024-01-15T03:56:37;97879.44;;;0.46;100.00
64827;BME280;51265;53.972;12.286;2024-01-15T03:59:03;97881.94;;;0.43;100.00
64827;BME280;51265;53.972;12.286;2024-01-15T04:01:29;97872.38;;;0.45;100.00
64827;BME280;51265;53.972;12.286;2024-01-15T04:03:55;97869.50;;;0.42;100.00
64827;BME280;51265;53.972;12.286;2024-01-15T04:06:22;97869.78;;;0.40;100.00
64827;BME280;51265;53.972;12.286;2024-01-15T04:08:48;97871.47;;;0.36;100.00
64827;BME280;51265;53.972;12.286;2024-01-15T04:11:14;97861.22;;;0.33;100.00
64827;BME280;51265;53.972;12.286;2024-01-15T04:13:40;97869.88;;;0.35;100.00
64827;BME280;51265;53.972;12.286;2024-01-15T04:16:06;97863.94;;;0.33;100.00
64827;BME280;51265;53.972;12.286;2024-01-15T04:18:32;97863.94;;;0.33;100.00
64827;BME280;51265;53.972;12.286;2024-01-15T04:20:58;97860.66;;;0.36;100.00
64827;BME280;51265;53.972;12.286;2024-01-15T04:23:24;97880.13;;;0.38;100.00
64827;BME280;51265;53.972;12.286;2024-01-15T04:25:50;97866.75;;;0.28;100.00
64827;BME280;51265;53.972;12.286;2024-01-15T04:28:17;97872.25;;;0.23;100.00
64827;BME280;51265;53.972;12.286;2024-01-15T04:30:43;97873.03;;;0.10;100.00
64827;BME280;51265;53.972;12.286;2024-01-15T04:33:09;97875.97;;;0.13;100.00
64827;BME280;51265;53.972;12.286;2024-01-15T04:35:35;97865.81;;;0.05;100.00
64827;BME280;51265;53.972;12.286;2024-01-15T04:38:01;97873.03;;;-0.04;100.00
64827;BME280;51265;53.972;12.286;2024-01-15T04:40:27;97863.00;;;-0.04;100.00
64827;BME280;51265;53.972;12.286;2024-01-15T04:42:54;97870.16;;;-0.13;100.00
64827;BME280;51265;53.972;12.286;2024-01-15T04:45:20;97869.34;;;-0.13;100.00
64827;BME280;51265;53.972;12.286;2024-01-15T04:47:48;97862.56;;;-0.11;100.00
64827;BME280;51265;53.972;12.286;2024-01-15T04:50:15;97849.53;;;-0.09;100.00
64827;BME280;51265;53.972;12.286;2024-01-15T04:52:41;97860.69;;;0.04;100.00
64827;BME280;51265;53.972;12.286;2024-01-15T04:55:07;97848.59;;;0.15;100.00
64827;BME280;51265;53.972;12.286;2024-01-15T04:57:33;97849.59;;;0.19;100.00
64827;BME280;51265;53.972;12.286;2024-01-15T05:00:00;97833.56;;;0.22;100.00
64827;BME280;51265;53.972;12.286;2024-01-15T05:02:26;97820.53;;;0.24;100.00
64827;BME280;51265;53.972;12.286;2024-01-15T05:04:52;97812.41;;;0.24;100.00
64827;BME280;51265;53.972;12.286;2024-01-15T05:07:18;97807.28;;;0.23;100.00
64827;BME280;51265;53.972;12.286;2024-01-15T05:09:44;97810.00;;;0.23;100.00
64827;BME280;51265;53.972;12.286;2024-01-15T05:12:10;97797.97;;;0.29;100.00
64827;BME280;51265;53.972;12.286;2024-01-15T05:14:37;97804.47;;;0.28;100.00
64827;BME280;51265;53.972;12.286;2024-01-15T05:17:03;97804.78;;;0.27;100.00
64827;BME280;51265;53.972;12.286;2024-01-15T05:19:29;97796.09;;;0.30;100.00
64827;BME280;51265;53.972;12.286;2024-01-15T05:21:55;97803.38;;;0.29;100.00
64827;BME280;51265;53.972;12.286;2024-01-15T05:24:21;97790.25;;;0.36;100.00
64827;BME280;51265;53.972;12.286;2024-01-15T05:26:48;97784.03;;;0.36;100.00
64827;BME280;51265;53.972;12.286;2024-01-15T05:29:14;97790.13;;;0.41;100.00
64827;BME280;51265;53.972;12.286;2024-01-15T05:31:40;97779.22;;;0.46;100.00
64827;BME280;51265;53.972;12.286;2024-01-15T05:34:06;97779.81;;;0.43;100.00
64827;BME280;51265;53.972;12.286;2024-01-15T05:36:32;97767.78;;;0.49;100.00
64827;BME280;51265;53.972;12.286;2024-01-15T05:38:58;97764.06;;;0.45;100.00
64827;BME280;51265;53.972;12.286;2024-01-15T05:41:25;97771.59;;;0.48;100.00
64827;BME280;51265;53.972;12.286;2024-01-15T05:43:51;97759.94;;;0.62;100.00
64827;BME280;51265;53.972;12.286;2024-01-15T05:46:17;97755.50;;;0.66;100.00
64827;BME280;51265;53.972;12.286;2024-01-15T05:48:43;97747.91;;;0.68;100.00
64827;BME280;51265;53.972;12.286;2024-01-15T05:51:10;97760.66;;;0.67;100.00
64827;BME280;51265;53.972;12.286;2024-01-15T05:53:36;97742.38;;;0.73;100.00
64827;BME280;51265;53.972;12.286;2024-01-15T05:56:04;97736.84;;;0.78;100.00
64827;BME280;51265;53.972;12.286;2024-01-15T05:58:30;97733.31;;;0.78;100.00
64827;BME280;51265;53.972;12.286;2024-01-15T06:00:56;97745.47;;;0.80;100.00
64827;BME280;51265;53.972;12.286;2024-01-15T06:03:23;97752.59;;;0.76;100.00
64827;BME280;51265;53.972;12.286;2024-01-15T06:05:49;97742.84;;;0.75;100.00
64827;BME280;51265;53.972;12.286;2024-01-15T06:08:15;97729.03;;;0.77;100.00
64827;BME280;51265;53.972;12.286;2024-01-15T06:10:41;97747.50;;;0.61;100.00
64827;BME280;51265;53.972;12.286;2024-01-15T06:13:07;97754.84;;;0.46;100.00
64827;BME280;51265;53.972;12.286;2024-01-15T06:15:33;97767.56;;;0.46;100.00
64827;BME280;51265;53.972;12.286;2024-01-15T06:17:59;97774.59;;;0.33;100.00
64827;BME280;51265;53.972;12.286;2024-01-15T06:20:25;97788.44;;;0.32;100.00
64827;BME280;51265;53.972;12.286;2024-01-15T06:22:52;97789.75;;;0.34;100.00
64827;BME280;51265;53.972;12.286;2024-01-15T06:25:18;97789.66;;;0.39;100.00
64827;BME280;51265;53.972;12.286;2024-01-15T06:27:44;97795.06;;;0.39;100.00
64827;BME280;51265;53.972;12.286;2024-01-15T06:30:10;97796.78;;;0.35;100.00
64827;BME280;51265;53.972;12.286;2024-01-15T06:32:37;97810.00;;;0.37;100.00
64827;BME280;51265;53.972;12.286;2024-01-15T06:35:04;97815.13;;;0.38;100.00
64827;BME280;51265;53.972;12.286;2024-01-15T06:37:30;97805.91;;;0.39;100.00
64827;BME280;51265;53.972;12.286;2024-01-15T06:39:58;97809.09;;;0.41;100.00
64827;BME280;51265;53.972;12.286;2024-01-15T06:42:25;97815.13;;;0.38;100.00
64827;BME280;51265;53.972;12.286;2024-01-15T06:44:51;97798.69;;;0.48;100.00
64827;BME280;51265;53.972;12.286;2024-01-15T06:47:17;97777.91;;;0.58;100.00
64827;BME280;51265;53.972;12.286;2024-01-15T06:49:43;97787.25;;;0.52;100.00
64827;BME280;51265;53.972;12.286;2024-01-15T06:52:09;97752.13;;;0.60;100.00
64827;BME280;51265;53.972;12.286;2024-01-15T06:54:35;97770.41;;;0.55;100.00
64827;BME280;51265;53.972;12.286;2024-01-15T06:57:01;97723.66;;;0.49;100.00
64827;BME280;51265;53.972;12.286;2024-01-15T06:59:27;97731.28;;;0.33;100.00
64827;BME280;51265;53.972;12.286;2024-01-15T07:01:54;97711.25;;;0.20;100.00
64827;BME280;51265;53.972;12.286;2024-01-15T07:04:21;97734.91;;;0.15;100.00
64827;BME280;51265;53.972;12.286;2024-01-15T07:06:47;97762.56;;;0.12;100.00
64827;BME280;51265;53.972;12.286;2024-01-15T07:09:14;97788.13;;;0.06;100.00
64827;BME280;51265;53.972;12.286;2024-01-15T07:11:44;97781.94;;;0.05;100.00
64827;BME280;51265;53.972;12.286;2024-01-15T07:14:10;97797.06;;;0.06;100.00
64827;BME280;51265;53.972;12.286;2024-01-15T07:16:36;97788.13;;;0.06;98.69
64827;BME280;51265;53.972;12.286;2024-01-15T07:19:02;97777.00;;;0.07;97.96
64827;BME280;51265;53.972;12.286;2024-01-15T07:21:29;97794.44;;;0.01;97.31
64827;BME280;51265;53.972;12.286;2024-01-15T07:23:56;97753.97;;;-0.04;96.62
64827;BME280;51265;53.972;12.286;2024-01-15T07:26:22;97765.06;;;-0.06;94.98
64827;BME280;51265;53.972;12.286;2024-01-15T07:28:48;97746.13;;;-0.06;95.68
64827;BME280;51265;53.972;12.286;2024-01-15T07:31:15;97755.16;;;-0.10;95.66
64827;BME280;51265;53.972;12.286;2024-01-15T07:33:42;97786.28;;;-0.13;96.63
64827;BME280;51265;53.972;12.286;2024-01-15T07:36:08;97793.22;;;-0.07;97.34
64827;BME280;51265;53.972;12.286;2024-01-15T07:38:34;97783.91;;;-0.01;97.31
64827;BME280;51265;53.972;12.286;2024-01-15T07:41:01;97768.56;;;-0.05;96.98
64827;BME280;51265;53.972;12.286;2024-01-15T07:43:27;97802.66;;;-0.04;97.16
64827;BME280;51265;53.972;12.286;2024-01-15T07:45:54;97803.69;;;0.00;97.62
64827;BME280;51265;53.972;12.286;2024-01-15T07:48:20;97818.81;;;0.01;97.67
64827;BME280;51265;53.972;12.286;2024-01-15T07:50:46;97815.31;;;0.01;98.58
64827;BME280;51265;53.972;12.286;2024-01-15T07:53:12;97817.28;;;-0.05;99.30
64827;BME280;51265;53.972;12.286;2024-01-15T07:55:38;97827.81;;;-0.04;100.00
64827;BME280;51265;53.972;12.286;2024-01-15T07:58:04;97829.31;;;0.03;100.00
64827;BME280;51265;53.972;12.286;2024-01-15T08:00:30;97836.22;;;-0.05;100.00
64827;BME280;51265;53.972;12.286;2024-01-15T08:02:57;97847.16;;;0.04;100.00
64827;BME280;51265;53.972;12.286;2024-01-15T08:05:23;97849.94;;;-0.02;100.00
64827;BME280;51265;53.972;12.286;2024-01-15T08:07:49;97870.44;;;0.05;100.00
64827;BME280;51265;53.972;12.286;2024-01-15T08:10:15;97864.59;;;-0.03;100.00
64827;BME280;51265;53.972;12.286;2024-01-15T08:12:41;97885.66;;;0.01;100.00
64827;BME280;51265;53.972;12.286;2024-01-15T08:15:07;97869.41;;;0.01;100.00
64827;BME280;51265;53.972;12.286;2024-01-15T08:17:34;97887.25;;;0.02;100.00
64827;BME280;51265;53.972;12.286;2024-01-15T08:20:00;97847.69;;;0.06;100.00
64827;BME280;51265;53.972;12.286;2024-01-15T08:22:27;97863.00;;;0.10;100.00
64827;BME280;51265;53.972;12.286;2024-01-15T08:24:53;97862.50;;;0.08;100.00
64827;BME280;51265;53.972;12.286;2024-01-15T08:27:21;97874.06;;;0.14;100.00
64827;BME280;51265;53.972;12.286;2024-01-15T08:29:47;97868.91;;;0.12;100.00
64827;BME280;51265;53.972;12.286;2024-01-15T08:32:13;97887.06;;;0.12;100.00
64827;BME280;51265;53.972;12.286;2024-01-15T08:34:41;97882.06;;;0.05;100.00
64827;BME280;51265;53.972;12.286;2024-01-15T08:37:08;97903.91;;;0.09;100.00
64827;BME280;51265;53.972;12.286;2024-01-15T08:39:34;97888.25;;;0.06;100.00
64827;BME280;51265;53.972;12.286;2024-01-15T08:42:05;97887.84;;;-0.02;100.00
64827;BME280;51265;53.972;12.286;2024-01-15T08:44:31;97904.47;;;-0.08;100.00
64827;BME280;51265;53.972;12.286;2024-01-15T08:46:57;97914.41;;;-0.22;100.00
64827;BME280;51265;53.972;12.286;2024-01-15T08:49:23;97924.78;;;-0.30;100.00
64827;BME280;51265;53.972;12.286;2024-01-15T08:51:50;97944.47;;;-0.43;100.00
64827;BME280;51265;53.972;12.286;2024-01-15T08:54:16;97938.91;;;-0.52;100.00
64827;BME280;51265;53.972;12.286;2024-01-15T08:56:44;97945.50;;;-0.58;100.00
64827;BME280;51265;53.972;12.286;2024-01-15T08:59:10;97956.31;;;-0.58;100.00
64827;BME280;51265;53.972;12.286;2024-01-15T09:01:38;97956.16;;;-0.66;100.00
64827;BME280;51265;53.972;12.286;2024-01-15T09:04:04;97974.97;;;-0.80;100.00
64827;BME280;51265;53.972;12.286;2024-01-15T09:06:31;97998.84;;;-0.87;100.00
64827;BME280;51265;53.972;12.286;2024-01-15T09:08:57;98021.66;;;-0.98;100.00
64827;BME280;51265;53.972;12.286;2024-01-15T09:11:23;98042.72;;;-0.95;100.00
64827;BME280;51265;53.972;12.286;2024-01-15T09:13:50;98027.06;;;-0.98;100.00
64827;BME280;51265;53.972;12.286;2024-01-15T09:16:17;98036.72;;;-0.92;100.00
64827;BME280;51265;53.972;12.286;2024-01-15T09:18:44;98052.72;;;-0.96;100.00
64827;BME280;51265;53.972;12.286;2024-01-15T09:21:10;98043.16;;;-0.88;100.00
64827;BME280;51265;53.972;12.286;2024-01-15T09:23:36;98049.59;;;-0.84;100.00
64827;BME280;51265;53.972;12.286;2024-01-15T09:26:02;98065.31;;;-0.86;100.00
64827;BME280;51265;53.972;12.286;2024-01-15T09:28:28;98077.22;;;-0.87;100.00
64827;BME280;51265;53.972;12.286;2024-01-15T09:30:54;98088.03;;;-0.87;100.00
64827;BME280;51265;53.972;12.286;2024-01-15T09:33:20;98080.59;;;-0.77;100.00
64827;BME280;51265;53.972;12.286;2024-01-15T09:35:46;98091.94;;;-0.74;100.00
64827;BME280;51265;53.972;12.286;2024-01-15T09:38:13;98037.25;;;-0.66;100.00
64827;BME280;51265;53.972;12.286;2024-01-15T09:40:43;98026.88;;;-0.59;100.00
64827;BME280;51265;53.972;12.286;2024-01-15T09:43:09;98016.28;;;-0.56;100.00
64827;BME280;51265;53.972;12.286;2024-01-15T09:45:36;98009.78;;;-0.55;100.00
64827;BME280;51265;53.972;12.286;2024-01-15T09:48:02;98011.63;;;-0.50;100.00
64827;BME280;51265;53.972;12.286;2024-01-15T09:50:28;97999.19;;;-0.51;100.00
64827;BME280;51265;53.972;12.286;2024-01-15T09:52:54;98038.44;;;-0.54;100.00
64827;BME280;51265;53.972;12.286;2024-01-15T09:55:23;97995.69;;;-0.52;99.38
64827;BME280;51265;53.972;12.286;2024-01-15T09:57:49;97995.75;;;-0.57;99.23
64827;BME280;51265;53.972;12.286;2024-01-15T10:00:17;97970.56;;;-0.52;97.55
64827;BME280;51265;53.972;12.286;2024-01-15T10:02:44;97965.72;;;-0.55;96.24
64827;BME280;51265;53.972;12.286;2024-01-15T10:05:11;97965.16;;;-0.52;95.55
64827;BME280;51265;53.972;12.286;2024-01-15T10:07:37;97971.94;;;-0.55;95.78
64827;BME280;51265;53.972;12.286;2024-01-15T10:10:04;97979.53;;;-0.57;95.13
64827;BME280;51265;53.972;12.286;2024-01-15T10:12:30;97964.47;;;-0.63;94.58
64827;BME280;51265;53.972;12.286;2024-01-15T10:14:56;97968.34;;;-0.69;95.06
64827;BME280;51265;53.972;12.286;2024-01-15T10:17:24;97989.47;;;-0.71;95.57
64827;BME280;51265;53.972;12.286;2024-01-15T10:19:50;97988.44;;;-0.75;96.04
64827;BME280;51265;53.972;12.286;2024-01-15T10:22:17;98007.53;;;-0.66;97.44
64827;BME280;51265;53.972;12.286;2024-01-15T10:24:43;98005.44;;;-0.74;97.41
64827;BME280;51265;53.972;12.286;2024-01-15T10:27:10;98023.56;;;-0.75;98.11
64827;BME280;51265;53.972;12.286;2024-01-15T10:29:37;97992.34;;;-0.86;95.44
64827;BME280;51265;53.972;12.286;2024-01-15T10:32:07;97961.50;;;-0.85;93.44
64827;BME280;51265;53.972;12.286;2024-01-15T10:34:38;97963.72;;;-0.87;92.21
64827;BME280;51265;53.972;12.286;2024-01-15T10:37:09;97959.91;;;-0.86;91.64
64827;BME280;51265;53.972;12.286;2024-01-15T10:39:36;97961.00;;;-0.87;91.00
64827;BME280;51265;53.972;12.286;2024-01-15T10:42:03;97975.75;;;-0.80;90.98
64827;BME280;51265;53.972;12.286;2024-01-15T10:44:29;97952.91;;;-0.87;90.66
64827;BME280;51265;53.972;12.286;2024-01-15T10:46:56;97957.78;;;-0.89;90.98
64827;BME280;51265;53.972;12.286;2024-01-15T10:49:22;97962.63;;;-0.86;89.82
64827;BME280;51265;53.972;12.286;2024-01-15T10:51:52;97958.25;;;-0.82;89.95
64827;BME280;51265;53.972;12.286;2024-01-15T10:54:19;97940.63;;;-0.80;89.05
64827;BME280;51265;53.972;12.286;2024-01-15T10:56:46;97949.84;;;-0.81;88.35
64827;BME280;51265;53.972;12.286;2024-01-15T10:59:13;97957.16;;;-0.81;88.38
64827;BME280;51265;53.972;12.286;2024-01-15T11:01:41;97968.47;;;-0.79;88.71
64827;BME280;51265;53.972;12.286;2024-01-15T11:04:08;97974.72;;;-0.84;89.49
64827;BME280;51265;53.972;12.286;2024-01-15T11:06:45;97979.94;;;-0.87;89.32
64827;BME280;51265;53.972;12.286;2024-01-15T11:09:13;97974.28;;;-0.91;88.27
64827;BME280;51265;53.972;12.286;2024-01-15T11:11:45;97980.72;;;-0.87;87.78
64827;BME280;51265;53.972;12.286;2024-01-15T11:14:41;98025.81;;;-0.82;88.95
64827;BME280;51265;53.972;12.286;2024-01-15T11:17:11;98008.00;;;-0.83;88.66
64827;BME280;51265;53.972;12.286;2024-01-15T11:19:46;97996.94;;;-0.87;87.63
64827;BME280;51265;53.972;12.286;2024-01-15T11:22:47;97976.03;;;-1.00;87.00
64827;BME280;51265;53.972;12.286;2024-01-15T11:25:14;97955.78;;;-1.03;85.75
64827;BME280;51265;53.972;12.286;2024-01-15T11:27:42;97977.41;;;-1.03;86.57
64827;BME280;51265;53.972;12.286;2024-01-15T11:30:10;98013.63;;;-1.04;85.96
64827;BME280;51265;53.972;12.286;2024-01-15T11:32:37;97976.94;;;-1.10;85.56
64827;BME280;51265;53.972;12.286;2024-01-15T11:35:08;97965.84;;;-1.08;85.11
64827;BME280;51265;53.972;12.286;2024-01-15T11:42:59;97978.59;;;-1.14;85.25
64827;BME280;51265;53.972;12.286;2024-01-15T11:45:25;98008.84;;;-1.12;86.28
64827;BME280;51265;53.972;12.286;2024-01-15T11:50:46;98036.78;;;-0.97;87.18
64827;BME280;51265;53.972;12.286;2024-01-15T11:53:17;98035.97;;;-0.98;86.54
64827;BME280;51265;53.972;12.286;2024-01-15T11:55:45;98013.13;;;-1.11;86.46
64827;BME280;51265;53.972;12.286;2024-01-15T11:58:11;97987.28;;;-1.17;85.23
64827;BME280;51265;53.972;12.286;2024-01-15T12:00:43;97992.69;;;-1.17;84.81
64827;BME280;51265;53.972;12.286;2024-01-15T12:03:10;97979.47;;;-1.18;84.63
64827;BME280;51265;53.972;12.286;2024-01-15T12:05:38;97999.22;;;-1.23;84.55
64827;BME280;51265;53.972;12.286;2024-01-15T12:08:04;98008.91;;;-1.17;85.08
64827;BME280;51265;53.972;12.286;2024-01-15T12:10:40;98016.16;;;-1.17;85.25
64827;BME280;51265;53.972;12.286;2024-01-15T12:13:11;98042.97;;;-1.21;86.46
64827;BME280;51265;53.972;12.286;2024-01-15T12:15:42;98042.97;;;-1.21;86.14
64827;BME280;51265;53.972;12.286;2024-01-15T12:18:10;98071.03;;;-1.22;86.67
64827;BME280;51265;53.972;12.286;2024-01-15T12:20:36;98076.63;;;-1.13;87.08
64827;BME280;51265;53.972;12.286;2024-01-15T12:23:03;98080.72;;;-1.16;87.43
64827;BME280;51265;53.972;12.286;2024-01-15T12:25:33;98087.50;;;-1.18;88.04
64827;BME280;51265;53.972;12.286;2024-01-15T12:28:00;98081.28;;;-1.19;88.36
64827;BME280;51265;53.972;12.286;2024-01-15T12:30:27;98101.84;;;-1.23;89.03
64827;BME280;51265;53.972;12.286;2024-01-15T12:32:54;98105.41;;;-1.28;88.20
64827;BME280;51265;53.972;12.286;2024-01-15T12:35:20;98079.31;;;-1.37;87.49
64827;BME280;51265;53.972;12.286;2024-01-15T12:37:47;98063.09;;;-1.37;86.51
64827;BME280;51265;53.972;12.286;2024-01-15T12:40:18;98083.03;;;-1.33;86.95
64827;BME280;51265;53.972;12.286;2024-01-15T12:42:45;98099.75;;;-1.31;86.64
64827;BME280;51265;53.972;12.286;2024-01-15T12:45:12;98063.66;;;-1.40;85.96
64827;BME280;51265;53.972;12.286;2024-01-15T12:47:40;98080.91;;;-1.36;86.42
64827;BME280;51265;53.972;12.286;2024-01-15T12:50:11;98104.59;;;-1.28;86.66
64827;BME280;51265;53.972;12.286;2024-01-15T12:52:40;98095.41;;;-1.27;86.10
64827;BME280;51265;53.972;12.286;2024-01-15T12:55:08;98095.25;;;-1.41;85.54
64827;BME280;51265;53.972;12.286;2024-01-15T12:57:35;98075.81;;;-1.43;85.74